Time;durP1;ratioP1;P1;durP2;ratioP2;P2;SDS_P1;SDS_P2;PMS_P1;PMS_P2;Temp;Humidity;BMP_temperature;BMP_pressure;BME280_temperature;BME280_humidity;BME280_pressure;Samples;Min_cycle;Max_cycle;Signal;HPM_P1;HPM_P2
2021/09/03 00:00:31;;;;;;;2.62;2.25;;;;;;;7.96;100.00;93739.22;1782383;78;21079;-88
2021/09/03 00:02:57;;;;;;;3.83;2.10;;;;;;;7.94;99.83;93743.47;1802890;75;21017;-90
2021/09/03 00:05:23;;;;;;;3.30;2.55;;;;;;;7.87;99.66;93752.28;1848737;75;21025;-89
2021/09/03 00:07:50;;;;;;;3.30;2.40;;;;;;;7.78;99.94;93745.81;1790556;78;21026;-90
2021/09/03 00:10:18;;;;;;;3.37;2.80;;;;;;;7.77;100.00;93747.52;1830099;76;21030;-91
2021/09/03 00:12:46;;;;;;;2.87;2.40;;;;;;;7.79;100.00;93745.23;1826335;76;21049;-89
2021/09/03 00:15:15;;;;;;;2.52;2.30;;;;;;;7.84;100.00;93743.54;1835369;76;21013;-90
2021/09/03 00:17:42;;;;;;;4.00;2.33;;;;;;;7.88;100.00;93740.30;1857851;74;21171;-88
2021/09/03 00:20:10;;;;;;;3.22;1.98;;;;;;;7.93;100.00;93741.30;1742017;80;21015;-90
2021/09/03 00:22:36;;;;;;;9.98;2.30;;;;;;;7.93;100.00;93740.53;1846249;76;21049;-90
2021/09/03 00:25:06;;;;;;;2.87;1.82;;;;;;;7.94;100.00;93740.18;1814963;76;22028;-88
2021/09/03 00:27:32;;;;;;;5.80;2.20;;;;;;;7.95;100.00;93733.61;1824773;76;20983;-90
2021/09/03 00:29:59;;;;;;;2.67;2.00;;;;;;;7.96;100.00;93735.73;1852784;75;20995;-89
2021/09/03 00:32:25;;;;;;;3.08;2.50;;;;;;;7.96;100.00;93734.38;1845455;76;21472;-90
2021/09/03 00:34:52;;;;;;;5.22;2.35;;;;;;;7.98;100.00;93731.52;1819346;77;21093;-89
2021/09/03 00:37:18;;;;;;;5.08;2.25;;;;;;;8.01;99.99;93726.72;1852798;75;21092;-90
2021/09/03 00:39:47;;;;;;;2.75;1.95;;;;;;;7.99;99.51;93726.88;1810288;77;21011;-89
2021/09/03 00:42:15;;;;;;;3.55;2.25;;;;;;;7.96;99.79;93728.39;1795081;77;21042;-89
2021/09/03 00:44:41;;;;;;;4.33;2.27;;;;;;;7.94;99.80;93727.99;1785290;77;21041;-90
2021/09/03 00:47:08;;;;;;;3.40;2.17;;;;;;;7.94;99.68;93721.22;1805994;77;21093;-91
2021/09/03 00:49:34;;;;;;;2.45;2.10;;;;;;;7.93;99.65;93714.81;1797041;77;21069;-89
2021/09/03 00:52:04;;;;;;;2.83;2.37;;;;;;;7.94;99.54;93720.45;1807119;77;20991;-90
2021/09/03 00:54:30;;;;;;;1.95;1.77;;;;;;;7.92;99.49;93718.09;1791874;76;21532;-90
2021/09/03 00:56:59;;;;;;;9.90;3.30;;;;;;;7.90;99.09;93712.84;1808406;76;21063;-90
2021/09/03 00:59:26;;;;;;;3.30;2.00;;;;;;;7.85;98.94;93716.66;1808261;76;21112;-89
2021/09/03 01:01:54;;;;;;;3.47;2.35;;;;;;;7.83;99.23;93717.62;1827728;76;21365;-89
2021/09/03 01:04:22;;;;;;;4.72;2.30;;;;;;;7.84;99.20;93713.76;1842002;76;21036;-90
2021/09/03 01:06:50;;;;;;;7.28;3.42;;;;;;;7.78;99.02;93710.62;1822502;76;21068;-89
2021/09/03 01:09:18;;;;;;;3.45;2.40;;;;;;;7.77;99.34;93712.32;1776424;78;21108;-89
2021/09/03 01:11:46;;;;;;;3.27;2.25;;;;;;;7.77;99.44;93705.55;1783489;79;21042;-90
2021/09/03 01:14:12;;;;;;;2.85;2.30;;;;;;;7.80;99.64;93710.23;1835877;76;21103;-90
2021/09/03 01:16:41;;;;;;;3.00;2.17;;;;;;;7.86;99.51;93706.05;1843402;77;20963;-89
2021/09/03 01:19:07;;;;;;;3.98;2.25;;;;;;;7.90;99.41;93700.65;1848869;76;20999;-89
2021/09/03 01:21:34;;;;;;;6.75;2.70;;;;;;;7.91;99.07;93703.59;1856965;76;21006;-88
2021/09/03 01:24:02;;;;;;;2.10;1.90;;;;;;;7.83;98.93;93708.14;1837745;75;21503;-89
2021/09/03 01:26:29;;;;;;;6.28;2.67;;;;;;;7.79;99.15;93702.69;1843679;77;21101;-90
2021/09/03 01:28:56;;;;;;;3.12;2.20;;;;;;;7.75;99.21;93705.16;1851584;75;21647;-89
2021/09/03 01:31:22;;;;;;;3.62;2.25;;;;;;;7.71;99.18;93701.05;1817772;76;21009;-89
2021/09/03 01:33:49;;;;;;;3.10;2.00;;;;;;;7.69;99.53;93702.56;1823263;76;21039;-89
2021/09/03 01:36:15;;;;;;;3.35;2.25;;;;;;;7.66;99.34;93700.59;1837576;76;20967;-90
2021/09/03 01:38:42;;;;;;;3.02;2.17;;;;;;;7.57;99.51;93703.59;1852137;76;21509;-89
2021/09/03 01:41:10;;;;;;;2.77;2.15;;;;;;;7.48;99.86;93701.73;1836045;76;21240;-91
2021/09/03 01:43:38;;;;;;;2.22;1.90;;;;;;;7.43;100.00;93700.13;1805233;75;21018;-89
2021/09/03 01:46:07;;;;;;;2.67;2.05;;;;;;;7.42;100.00;93697.81;1790776;79;20947;-89
2021/09/03 01:48:34;;;;;;;4.83;2.00;;;;;;;7.39;100.00;93691.20;1793986;79;21532;-89
2021/09/03 01:51:00;;;;;;;4.25;2.42;;;;;;;7.40;100.00;93690.04;1801859;76;21767;-88
2021/09/03 01:53:29;;;;;;;4.53;2.12;;;;;;;7.40;100.00;93679.80;1863371;74;20905;-89
2021/09/03 01:55:56;;;;;;;3.67;1.80;;;;;;;7.39;100.00;93683.08;1839829;76;21077;-89
2021/09/03 01:58:23;;;;;;;2.98;2.33;;;;;;;7.38;100.00;93676.12;1843080;77;21027;-90
2021/09/03 02:00:49;;;;;;;4.12;2.20;;;;;;;7.32;100.00;93678.93;1838807;77;21015;-88
2021/09/03 02:03:15;;;;;;;3.00;2.70;;;;;;;7.22;100.00;93666.84;1839529;77;21470;-89
2021/09/03 02:05:43;;;;;;;6.10;2.42;;;;;;;7.15;100.00;93667.33;1839422;77;21086;-90
2021/09/03 02:08:10;;;;;;;4.10;2.08;;;;;;;7.14;100.00;93661.70;1839984;77;21021;-90
2021/09/03 02:10:36;;;;;;;4.28;1.98;;;;;;;7.14;100.00;93660.34;1837899;77;21054;-89
2021/09/03 02:13:02;;;;;;;5.40;2.37;;;;;;;7.10;100.00;93660.30;1838221;76;21054;-90
2021/09/03 02:15:29;;;;;;;2.85;2.52;;;;;;;7.09;100.00;93660.67;1789320;79;21710;-89
2021/09/03 02:17:57;;;;;;;9.60;2.80;;;;;;;7.13;100.00;93661.50;1851941;76;21056;-91
2021/09/03 02:20:23;;;;;;;2.95;2.35;;;;;;;7.15;100.00;93658.64;1807987;75;21113;-91
2021/09/03 02:22:50;;;;;;;3.77;2.22;;;;;;;7.18;100.00;93665.22;1779252;77;21561;-90
2021/09/03 02:25:16;;;;;;;4.30;2.08;;;;;;;7.25;100.00;93669.38;1832807;76;21041;-90
2021/09/03 02:27:42;;;;;;;3.20;2.20;;;;;;;7.28;100.00;93655.89;1826083;77;21096;-88
2021/09/03 02:30:10;;;;;;;7.35;2.17;;;;;;;7.30;100.00;93667.72;1826415;77;21088;-91
2021/09/03 02:32:36;;;;;;;3.60;2.35;;;;;;;7.32;100.00;93657.87;1837015;77;21793;-89
2021/09/03 02:35:04;;;;;;;3.27;2.52;;;;;;;7.32;100.00;93663.27;1806490;77;21311;-90
2021/09/03 02:37:31;;;;;;;2.72;1.92;;;;;;;7.27;100.00;93647.58;1810774;77;21053;-90
2021/09/03 02:39:57;;;;;;;2.67;2.00;;;;;;;7.27;100.00;93657.05;1773936;78;21296;-90
2021/09/03 02:42:23;;;;;;;3.25;2.40;;;;;;;7.27;100.00;93656.27;1773148;78;21606;-91
2021/09/03 02:44:50;;;;;;;2.62;1.90;;;;;;;7.30;100.00;93655.55;1815098;78;20991;-92
2021/09/03 02:47:17;;;;;;;3.62;2.27;;;;;;;7.33;100.00;93658.06;1774181;78;20998;-90
2021/09/03 02:49:43;;;;;;;7.05;2.25;;;;;;;7.36;100.00;93651.34;1794441;77;21171;-89
2021/09/03 02:52:09;;;;;;;2.30;2.02;;;;;;;7.39;100.00;93643.85;1826431;76;21098;-91
2021/09/03 02:54:36;;;;;;;3.10;2.10;;;;;;;7.37;100.00;93643.45;1849533;76;21148;-89
2021/09/03 02:57:05;;;;;;;3.15;2.30;;;;;;;7.32;100.00;93653.23;1834110;77;21019;-91
2021/09/03 02:59:32;;;;;;;8.40;2.37;;;;;;;7.27;100.00;93644.87;1835738;77;21034;-88
2021/09/03 03:01:59;;;;;;;3.05;2.15;;;;;;;7.25;100.00;93636.91;1841044;75;21014;-91
2021/09/03 03:04:25;;;;;;;4.25;2.25;;;;;;;7.28;100.00;93639.66;1838445;77;21486;-92
2021/09/03 03:06:52;;;;;;;2.30;2.05;;;;;;;7.34;100.00;93637.42;1839186;75;21454;-91
2021/09/03 03:09:18;;;;;;;1.82;1.72;;;;;;;7.39;100.00;93631.67;1839108;76;21053;-90
2021/09/03 03:11:45;;;;;;;4.85;2.37;;;;;;;7.37;100.00;93635.34;1839296;76;21014;-91
2021/09/03 03:14:16;;;;;;;5.90;2.45;;;;;;;7.33;100.00;93633.72;1864485;74;21028;-90
2021/09/03 03:16:40;;;;;;;3.70;2.37;;;;;;;7.27;100.00;93633.28;1809842;75;21197;-90
2021/09/03 03:19:06;;;;;;;7.58;2.35;;;;;;;7.29;100.00;93632.33;1786712;79;21560;-89
2021/09/03 03:21:34;;;;;;;4.05;2.62;;;;;;;7.30;100.00;93630.62;1779800;80;21553;-91
2021/09/03 03:24:01;;;;;;;2.45;2.17;;;;;;;7.34;100.00;93629.31;1782294;78;21022;-91
2021/09/03 03:26:27;;;;;;;4.85;2.10;;;;;;;7.37;100.00;93631.28;1773147;78;21023;-91
2021/09/03 03:28:54;;;;;;;2.27;2.08;;;;;;;7.42;100.00;93636.36;1799410;77;21121;-92
2021/09/03 03:31:20;;;;;;;4.03;1.80;;;;;;;7.48;100.00;93632.73;1808885;77;21045;-91
2021/09/03 03:33:47;;;;;;;2.62;2.00;;;;;;;7.51;100.00;93626.58;1804466;77;21121;-92
2021/09/03 03:36:15;;;;;;;2.80;2.20;;;;;;;7.49;100.00;93626.19;1776085;80;21007;-91
2021/09/03 03:38:42;;;;;;;3.00;2.40;;;;;;;7.41;100.00;93632.09;1776974;79;21486;-91
2021/09/03 03:41:08;;;;;;;3.75;2.20;;;;;;;7.34;100.00;93626.60;1779864;79;21770;-90
2021/09/03 03:43:36;;;;;;;6.03;2.65;;;;;;;7.30;100.00;93633.91;1778661;79;21050;-89
2021/09/03 03:46:03;;;;;;;3.05;2.75;;;;;;;7.30;100.00;93633.91;1776087;80;21552;-89
2021/09/03 03:48:30;;;;;;;3.52;2.33;;;;;;;7.34;100.00;93637.42;1776485;80;21078;-88
2021/09/03 03:50:56;;;;;;;4.47;2.35;;;;;;;7.42;100.00;93636.36;1831038;77;20962;-90
2021/09/03 03:53:23;;;;;;;2.25;1.90;;;;;;;7.47;100.00;93631.18;1800872;75;21731;-89
2021/09/03 03:55:49;;;;;;;3.30;1.87;;;;;;;7.45;100.00;93623.45;1818596;76;20971;-90
2021/09/03 03:58:17;;;;;;;3.22;2.10;;;;;;;7.42;100.00;93628.23;1806966;76;21019;-90
2021/09/03 04:00:44;;;;;;;2.52;2.33;;;;;;;7.37;100.00;93625.88;1831512;75;21100;-87
2021/09/03 04:03:11;;;;;;;3.85;2.02;;;;;;;7.33;100.00;93629.66;1806681;77;21097;-89
2021/09/03 04:05:38;;;;;;;2.42;2.00;;;;;;;7.27;100.00;93627.30;1883785;73;21768;-90
2021/09/03 04:08:05;;;;;;;2.33;1.87;;;;;;;7.23;100.00;93632.46;1870163;73;21081;-90
2021/09/03 04:10:31;;;;;;;2.83;2.20;;;;;;;7.15;100.00;93638.36;1848695;75;21076;-89
2021/09/03 04:12:58;;;;;;;4.35;2.35;;;;;;;7.10;100.00;93629.77;1866801;75;21201;-89
2021/09/03 04:15:24;;;;;;;3.05;2.42;;;;;;;7.03;100.00;93627.20;1853282;75;21097;-89
2021/09/03 04:17:52;;;;;;;4.55;2.50;;;;;;;7.04;100.00;93628.75;1759265;77;21141;-89
2021/09/03 04:20:20;;;;;;;10.98;2.60;;;;;;;7.09;100.00;93624.95;1756814;78;21018;-90
2021/09/03 04:22:47;;;;;;;4.72;2.22;;;;;;;7.13;100.00;93622.28;1809380;76;21069;-90
2021/09/03 04:25:13;;;;;;;3.00;2.40;;;;;;;7.11;100.00;93623.21;1852161;75;21013;-89
2021/09/03 04:27:41;;;;;;;5.25;2.83;;;;;;;7.13;100.00;93627.70;1854190;75;21079;-89
2021/09/03 04:30:10;;;;;;;2.33;2.12;;;;;;;7.14;100.00;93630.02;1778058;79;21421;-90
2021/09/03 04:32:39;;;;;;;2.95;2.30;;;;;;;7.14;100.00;93618.42;1798477;78;21481;-90
2021/09/03 04:35:06;;;;;;;3.50;2.10;;;;;;;7.06;100.00;93627.80;1844387;76;21007;-89
2021/09/03 04:37:39;;;;;;;4.50;2.25;;;;;;;6.96;100.00;93633.88;1815609;77;21022;-89
2021/09/03 04:40:10;;;;;;;5.28;2.52;;;;;;;6.89;100.00;93631.07;1809645;77;21110;-87
2021/09/03 04:42:37;;;;;;;3.60;2.20;;;;;;;7.12;100.00;93623.44;1810944;77;21763;-89
2021/09/03 04:45:05;;;;;;;2.35;2.00;;;;;;;7.71;100.00;93618.50;1808014;76;21026;-89
2021/09/03 04:47:31;;;;;;;3.33;2.42;;;;;;;8.48;100.00;93621.49;1782223;76;21093;-90
2021/09/03 04:49:58;;;;;;;1.98;1.62;;;;;;;9.33;99.15;93624.50;1800557;76;21018;-88
2021/09/03 04:52:24;;;;;;;2.75;2.20;;;;;;;9.97;94.72;93628.16;1834470;75;21084;-89
2021/09/03 04:54:51;;;;;;;2.50;2.10;;;;;;;10.33;91.85;93628.21;1805632;77;21137;-88
2021/09/03 04:57:17;;;;;;;2.27;2.05;;;;;;;10.43;88.42;93623.95;1786845;77;21153;-88
2021/09/03 04:59:44;;;;;;;3.87;2.00;;;;;;;10.36;87.51;93627.44;1805622;77;20955;-90
2021/09/03 05:02:11;;;;;;;3.85;2.33;;;;;;;10.31;87.73;93630.56;1846655;75;21231;-89
2021/09/03 05:04:37;;;;;;;2.90;2.35;;;;;;;10.25;86.51;93631.30;1803346;77;21037;-90
2021/09/03 05:07:05;;;;;;;2.42;2.12;;;;;;;10.08;84.90;93627.38;1826000;76;21121;-90
2021/09/03 05:09:32;;;;;;;4.95;2.30;;;;;;;9.91;85.70;93625.62;1840647;75;21013;-90
2021/09/03 05:11:58;;;;;;;3.95;1.87;;;;;;;9.83;85.12;93628.13;1837627;75;21026;-90
2021/09/03 05:14:25;;;;;;;2.90;2.37;;;;;;;9.86;86.58;93630.66;1811844;76;21066;-90
2021/09/03 05:16:52;;;;;;;3.65;2.25;;;;;;;10.15;85.04;93627.39;1784337;77;21057;-89
2021/09/03 05:19:18;;;;;;;4.33;2.60;;;;;;;10.47;84.65;93624.73;1787616;79;21132;-91
2021/09/03 05:21:44;;;;;;;2.72;2.02;;;;;;;10.93;82.99;93624.66;1793407;78;21024;-89
2021/09/03 05:24:11;;;;;;;2.45;2.25;;;;;;;11.48;80.96;93620.62;1788192;78;21025;-88
2021/09/03 05:26:37;;;;;;;2.75;1.82;;;;;;;11.96;80.29;93620.03;1777509;79;21647;-90
2021/09/03 05:29:03;;;;;;;2.70;2.40;;;;;;;12.54;77.17;93616.30;1760543;79;21046;-91
2021/09/03 05:31:31;;;;;;;2.37;1.90;;;;;;;12.93;74.09;93615.16;1739940;80;21627;-88
2021/09/03 05:33:58;;;;;;;2.47;1.87;;;;;;;13.00;73.17;93605.54;1804238;77;21092;-89
2021/09/03 05:36:24;;;;;;;1.82;1.70;;;;;;;12.99;72.83;93615.69;1819729;76;21144;-91
2021/09/03 05:38:52;;;;;;;3.22;2.52;;;;;;;13.03;73.17;93615.06;1777716;76;21063;-92
2021/09/03 05:41:19;;;;;;;2.12;1.82;;;;;;;13.15;70.62;93615.72;1832191;75;20995;-91
2021/09/03 05:43:45;;;;;;;2.52;2.30;;;;;;;12.94;70.75;93618.86;1860625;75;21075;-91
2021/09/03 05:46:12;;;;;;;2.33;2.10;;;;;;;12.76;72.12;93617.66;1835563;75;21044;-90
2021/09/03 05:48:38;;;;;;;3.50;2.15;;;;;;;12.62;70.66;93616.42;1867344;74;21550;-92
2021/09/03 05:51:05;;;;;;;3.67;2.33;;;;;;;12.36;72.36;93621.87;1871455;74;21021;-90
2021/09/03 05:53:32;;;;;;;3.10;2.50;;;;;;;12.24;73.33;93614.96;1863899;75;21625;-90
2021/09/03 05:55:59;;;;;;;2.40;2.20;;;;;;;12.23;73.22;93603.88;1865453;75;21770;-92
2021/09/03 05:58:26;;;;;;;3.58;2.33;;;;;;;12.17;74.11;93610.92;1839998;76;20887;-90
2021/09/03 06:00:53;;;;;;;4.17;2.40;;;;;;;12.20;73.65;93614.21;1864831;74;21089;-88
2021/09/03 06:03:20;;;;;;;2.75;2.30;;;;;;;12.30;74.56;93610.64;1865622;74;21037;-88
2021/09/03 06:05:47;;;;;;;3.27;2.70;;;;;;;12.57;72.32;93610.04;1844652;75;21584;-89
2021/09/03 06:08:13;;;;;;;4.62;2.80;;;;;;;12.86;70.75;93618.72;1848128;75;21780;-90
2021/09/03 06:10:39;;;;;;;4.37;2.62;;;;;;;13.09;70.36;93612.67;1862826;74;22136;-88
2021/09/03 06:13:06;;;;;;;3.02;2.72;;;;;;;13.32;70.30;93606.60;1864317;74;21348;-91
2021/09/03 06:15:32;;;;;;;3.47;3.05;;;;;;;13.53;69.60;93612.39;1839119;76;21563;-91
2021/09/03 06:17:59;;;;;;;4.20;2.75;;;;;;;13.64;68.69;93609.53;1852571;75;21056;-90
2021/09/03 06:20:26;;;;;;;4.97;2.60;;;;;;;13.65;67.18;93607.74;1806416;75;21053;-88
2021/09/03 06:22:52;;;;;;;3.15;2.85;;;;;;;13.65;66.90;93602.28;1776241;77;21054;-91
2021/09/03 06:25:19;;;;;;;2.47;2.27;;;;;;;13.62;67.10;93605.85;1800616;77;21654;-91
2021/09/03 06:27:46;;;;;;;2.45;2.25;;;;;;;13.62;66.74;93607.22;1803781;77;21104;-88
2021/09/03 06:30:14;;;;;;;2.37;2.17;;;;;;;13.67;67.25;93606.75;1804777;77;21123;-88
2021/09/03 06:32:41;;;;;;;3.15;2.47;;;;;;;13.85;67.46;93605.93;1800260;77;21027;-88
2021/09/03 06:35:08;;;;;;;2.77;2.42;;;;;;;14.00;66.36;93599.68;1819456;74;21045;-91
2021/09/03 06:37:34;;;;;;;2.50;2.30;;;;;;;14.17;65.44;93606.06;1877643;74;21029;-90
2021/09/03 06:40:01;;;;;;;4.20;2.67;;;;;;;14.22;64.76;93606.98;1836455;75;21010;-89
2021/09/03 06:42:31;;;;;;;4.47;2.60;;;;;;;14.25;64.77;93608.10;1838967;75;21649;-89
2021/09/03 06:45:00;;;;;;;2.52;2.33;;;;;;;14.22;63.58;93604.84;1819458;75;21100;-86
2021/09/03 06:47:27;;;;;;;4.22;2.98;;;;;;;14.24;63.95;93609.30;1811610;77;21136;-90
2021/09/03 06:49:56;;;;;;;5.28;2.70;;;;;;;14.40;63.96;93601.22;1773758;78;21778;-89
2021/09/03 06:54:58;;;;;;;3.50;2.35;;;;;;;14.84;63.04;93610.32;1862407;74;21311;-90
2021/09/03 06:57:25;;;;;;;3.00;2.52;;;;;;;15.10;62.05;93607.32;1795092;76;21685;-89
2021/09/03 06:59:52;;;;;;;3.10;2.75;;;;;;;15.19;59.81;93608.91;1780646;78;22056;-92
2021/09/03 07:02:18;;;;;;;5.47;2.58;;;;;;;15.21;58.94;93613.98;1774519;79;21437;-91
2021/09/03 07:04:44;;;;;;;3.37;2.40;;;;;;;15.20;59.01;93613.81;1771213;78;21596;-91
2021/09/03 07:07:11;;;;;;;2.70;2.30;;;;;;;15.23;60.29;93612.38;1778240;78;21049;-92
2021/09/03 07:09:38;;;;;;;3.45;2.12;;;;;;;15.19;59.68;93616.34;1812608;77;21091;-89
2021/09/03 07:12:06;;;;;;;3.58;2.45;;;;;;;15.05;60.58;93616.03;1846599;75;21589;-89
2021/09/03 07:14:34;;;;;;;3.25;2.52;;;;;;;15.00;58.95;93610.42;1800194;77;21477;-89
2021/09/03 07:17:00;;;;;;;5.00;2.10;;;;;;;14.99;60.57;93609.48;1821605;77;21211;-90
2021/09/03 07:19:27;;;;;;;2.52;1.98;;;;;;;14.99;59.29;93608.11;1805557;77;21033;-90
2021/09/03 07:21:55;;;;;;;3.77;2.35;;;;;;;14.96;59.47;93604.23;1804732;77;22260;-90
2021/09/03 07:24:21;;;;;;;3.77;2.58;;;;;;;14.96;58.69;93616.55;1756138;79;20963;-90
2021/09/03 07:26:47;;;;;;;3.67;2.40;;;;;;;14.87;59.46;93612.23;1819217;76;21026;-92
2021/09/03 07:29:14;;;;;;;3.25;2.37;;;;;;;14.82;58.68;93609.98;1794236;77;21042;-88
2021/09/03 07:31:41;;;;;;;2.27;2.08;;;;;;;14.77;58.59;93608.47;1838630;76;21068;-89
2021/09/03 07:34:07;;;;;;;2.83;2.00;;;;;;;14.69;58.47;93606.28;1831098;77;21488;-87
2021/09/03 07:36:34;;;;;;;4.22;2.33;;;;;;;14.59;57.65;93598.41;1802479;77;21071;-91
2021/09/03 07:39:01;;;;;;;2.12;1.92;;;;;;;14.50;58.06;93594.08;1787807;79;21036;-89
2021/09/03 07:41:28;;;;;;;3.00;2.45;;;;;;;14.44;58.19;93591.59;1760326;79;21632;-91
2021/09/03 07:43:55;;;;;;;2.70;2.47;;;;;;;14.40;59.57;93591.65;1752806;77;21050;-88
2021/09/03 07:46:23;;;;;;;3.00;2.00;;;;;;;14.43;60.04;93590.83;1840182;76;21075;-91
2021/09/03 07:48:52;;;;;;;3.52;2.27;;;;;;;14.46;60.08;93585.89;1768636;76;21064;-89
2021/09/03 07:51:18;;;;;;;2.33;2.05;;;;;;;14.50;60.04;93588.60;1762018;78;21000;-89
2021/09/03 07:53:45;;;;;;;2.72;2.47;;;;;;;14.52;60.75;93581.53;1765199;78;21085;-88
2021/09/03 07:56:12;;;;;;;2.50;2.30;;;;;;;14.58;59.16;93590.03;1776039;77;21425;-86
2021/09/03 07:58:38;;;;;;;4.12;2.83;;;;;;;14.62;59.04;93593.48;1828771;77;21106;-87
2021/09/03 08:01:05;;;;;;;4.85;3.83;;;;;;;14.66;60.22;93598.30;1881505;73;21436;-89
2021/09/03 08:03:31;;;;;;;3.17;2.55;;;;;;;14.65;58.65;93589.91;1867336;74;21124;-89
2021/09/03 08:05:58;;;;;;;2.35;2.08;;;;;;;14.58;57.08;93591.40;1833857;75;21049;-92
2021/09/03 08:08:24;;;;;;;3.50;2.37;;;;;;;14.51;57.26;93588.17;1835197;75;21532;-89
2021/09/03 08:10:52;;;;;;;2.17;1.87;;;;;;;14.51;58.36;93585.44;1805424;77;21106;-90
2021/09/03 08:13:19;;;;;;;2.15;1.95;;;;;;;14.57;59.41;93585.75;1852268;75;21004;-91
2021/09/03 08:15:45;;;;;;;2.30;1.90;;;;;;;14.65;58.53;93583.67;1872793;74;21080;-91
2021/09/03 08:18:13;;;;;;;2.05;1.80;;;;;;;14.73;57.67;93580.98;1859030;74;21022;-92
2021/09/03 08:20:42;;;;;;;1.80;1.70;;;;;;;14.79;59.19;93581.47;1837377;75;21429;-91
2021/09/03 08:23:10;;;;;;;2.35;1.87;;;;;;;14.93;60.07;93581.82;1810404;74;21037;-91
2021/09/03 08:25:37;;;;;;;2.17;1.98;;;;;;;15.05;59.30;93579.06;1832366;77;21047;-92
2021/09/03 08:28:04;;;;;;;1.62;1.52;;;;;;;15.16;58.52;93576.13;1840265;75;21437;-91
2021/09/03 08:30:31;;;;;;;2.30;2.10;;;;;;;15.25;58.46;93570.86;1846563;75;21038;-91
2021/09/03 08:32:58;;;;;;;2.05;1.85;;;;;;;15.34;57.99;93576.53;1851953;74;20987;-91
2021/09/03 08:35:24;;;;;;;3.08;2.10;;;;;;;15.43;57.37;93575.99;1873759;73;21638;-91
2021/09/03 08:37:51;;;;;;;2.77;1.90;;;;;;;15.42;55.03;93573.05;1801585;77;21073;-89
2021/09/03 08:40:18;;;;;;;2.22;1.72;;;;;;;15.37;55.98;93568.84;1805113;77;21089;-92
2021/09/03 08:42:44;;;;;;;1.37;1.27;;;;;;;15.40;55.53;93560.39;1807120;77;21579;-87
2021/09/03 08:45:13;;;;;;;3.12;1.60;;;;;;;15.42;54.10;93557.41;1819727;77;20978;-89
2021/09/03 08:47:40;;;;;;;2.02;1.50;;;;;;;15.41;54.08;93551.73;1815437;74;21175;-89
2021/09/03 08:50:12;;;;;;;2.65;1.77;;;;;;;15.42;55.67;93551.14;1877864;74;21359;-86
2021/09/03 08:52:45;;;;;;;1.70;1.40;;;;;;;15.41;51.93;93551.73;1746115;79;21085;-89
2021/09/03 08:55:12;;;;;;;2.52;1.92;;;;;;;15.30;52.46;93546.47;1776670;77;21132;-89
2021/09/03 08:57:38;;;;;;;4.60;1.90;;;;;;;15.25;53.44;93549.70;1828359;76;21100;-89
2021/09/03 09:00:21;;;;;;;2.15;1.98;;;;;;;15.25;53.39;93542.09;1830149;76;21607;-89
2021/09/03 09:03:13;;;;;;;2.77;1.75;;;;;;;15.27;54.65;93549.30;1836137;75;21075;-91
2021/09/03 09:05:52;;;;;;;2.92;1.80;;;;;;;15.35;53.64;93538.98;1829628;76;21512;-90
2021/09/03 09:08:20;;;;;;;3.17;2.05;;;;;;;15.44;53.50;93532.32;1836246;75;21062;-86
2021/09/03 09:11:00;;;;;;;1.95;1.75;;;;;;;15.53;55.08;93529.77;1844005;75;21073;-91
2021/09/03 09:13:32;;;;;;;2.33;2.10;;;;;;;15.64;55.93;93533.05;1837850;76;21170;-92
2021/09/03 09:16:14;;;;;;;2.80;2.20;;;;;;;15.76;56.00;93534.42;1846761;75;21035;-92
2021/09/03 09:18:49;;;;;;;3.22;2.20;;;;;;;15.79;55.77;93533.55;1838886;75;21305;-93
2021/09/03 09:21:39;;;;;;;1.95;1.60;;;;;;;15.80;54.03;93529.63;1806193;77;21045;-91
2021/09/03 09:24:13;;;;;;;2.30;2.10;;;;;;;15.75;53.66;93527.38;1773915;78;21578;-90
2021/09/03 09:26:53;;;;;;;3.17;1.90;;;;;;;15.72;53.71;93532.33;1770385;77;21073;-90
2021/09/03 09:31:54;;;;;;;2.60;2.22;;;;;;;15.70;55.58;93521.80;1755566;78;21069;-89
2021/09/03 09:34:26;;;;;;;3.00;2.10;;;;;;;15.74;56.18;93518.98;1848498;75;21267;-87
2021/09/03 09:36:54;;;;;;;2.50;2.08;;;;;;;15.77;56.47;93515.40;1826828;76;21084;-88
2021/09/03 09:39:22;;;;;;;2.27;1.65;;;;;;;15.83;56.38;93520.53;1795851;77;21562;-89
2021/09/03 09:42:00;;;;;;;2.60;1.80;;;;;;;15.85;53.98;93505.81;1798090;77;21132;-89
2021/09/03 09:47:05;;;;;;;3.05;1.80;;;;;;;15.77;52.64;93512.05;1775063;78;21063;-91
2021/09/03 09:49:31;;;;;;;2.55;2.25;;;;;;;15.80;54.19;93509.06;1794168;78;21603;-89
2021/09/03 09:51:57;;;;;;;2.17;1.70;;;;;;;15.91;55.80;93512.91;1817595;77;21103;-91
2021/09/03 09:54:25;;;;;;;3.47;2.50;;;;;;;16.02;55.14;93517.55;1749154;79;21587;-90
2021/09/03 09:56:59;;;;;;;2.83;2.12;;;;;;;16.05;54.89;93504.36;1790850;77;21086;-88
2021/09/03 09:59:27;;;;;;;2.30;2.05;;;;;;;16.06;54.37;93504.56;1793481;77;21675;-91
2021/09/03 10:01:57;;;;;;;2.62;2.25;;;;;;;16.06;54.15;93498.27;1769512;78;21089;-91
2021/09/03 10:04:26;;;;;;;2.47;2.00;;;;;;;16.08;52.38;93499.40;1836462;74;21044;-91
2021/09/03 10:06:59;;;;;;;3.80;2.10;;;;;;;16.09;53.11;93495.45;1812460;77;21050;-90
2021/09/03 10:09:33;;;;;;;4.47;2.30;;;;;;;16.19;53.61;93493.66;1821398;76;21053;-90
2021/09/03 10:12:00;;;;;;;2.50;2.05;;;;;;;16.32;54.83;93492.36;1747090;80;21245;-90
2021/09/03 10:14:30;;;;;;;2.67;2.20;;;;;;;16.45;54.09;93489.11;1770933;78;21014;-88
2021/09/03 10:16:57;;;;;;;2.60;2.27;;;;;;;16.51;52.51;93499.14;1857074;74;21091;-90
2021/09/03 10:19:27;;;;;;;3.42;2.40;;;;;;;16.46;52.62;93492.02;1836697;74;21084;-90
2021/09/03 10:22:11;;;;;;;4.33;2.30;;;;;;;16.40;53.37;93484.92;1844303;76;21049;-91
2021/09/03 10:24:38;;;;;;;3.08;2.47;;;;;;;16.38;53.50;93483.19;1815979;76;21425;-90
2021/09/03 10:27:06;;;;;;;2.80;2.50;;;;;;;16.36;53.01;93481.49;1823725;76;21138;-88
2021/09/03 10:29:41;;;;;;;2.80;2.47;;;;;;;16.36;54.56;93476.00;1793662;77;21137;-91
2021/09/03 10:32:11;;;;;;;1.55;1.40;;;;;;;16.38;55.11;93484.56;1782171;79;21006;-89
2021/09/03 10:34:54;;;;;;;1.62;1.50;;;;;;;16.39;53.59;93482.58;1819204;76;21034;-87
2021/09/03 10:37:32;;;;;;;3.45;2.05;;;;;;;16.34;53.47;93481.74;1841350;75;20997;-88
2021/09/03 10:40:23;;;;;;;1.60;1.50;;;;;;;16.37;53.26;93482.27;1809049;76;21197;-90
2021/09/03 10:42:53;;;;;;;3.25;1.82;;;;;;;16.40;53.39;93480.03;1796866;77;21068;-90
2021/09/03 10:45:29;;;;;;;2.62;2.37;;;;;;;16.45;52.37;93480.88;1790211;78;21129;-88
2021/09/03 10:48:13;;;;;;;2.15;1.95;;;;;;;16.48;53.77;93472.55;1770143;77;21538;-86
2021/09/03 10:53:22;;;;;;;3.30;2.90;;;;;;;16.67;53.25;93466.77;1800915;77;21662;-91
2021/09/03 10:56:21;;;;;;;2.55;2.27;;;;;;;16.80;53.35;93469.59;1817711;77;21485;-92
2021/09/03 10:59:01;;;;;;;4.37;2.65;;;;;;;16.90;53.17;93471.28;1807312;76;21449;-91
2021/09/03 11:01:31;;;;;;;1.67;1.55;;;;;;;16.96;52.30;93460.52;1809554;77;21612;-91
2021/09/03 11:04:15;;;;;;;2.45;1.75;;;;;;;16.98;52.73;93468.50;1820430;75;21528;-91
2021/09/03 11:07:00;;;;;;;1.62;1.52;;;;;;;17.02;54.24;93462.91;1806887;77;21671;-90
2021/09/03 11:09:28;;;;;;;2.55;2.00;;;;;;;17.11;53.76;93464.44;1804560;77;21049;-89
2021/09/03 11:14:30;;;;;;;2.15;1.75;;;;;;;17.17;52.83;93478.39;1761325;79;21077;-89
2021/09/03 11:17:07;;;;;;;3.15;1.67;;;;;;;17.00;52.54;93472.20;1789251;78;21077;-90
2021/09/03 11:19:48;;;;;;;3.47;1.57;;;;;;;16.84;53.50;93487.34;1796810;77;21073;-91
2021/09/03 11:22:17;;;;;;;1.57;1.37;;;;;;;16.69;54.58;93471.20;1800348;77;21576;-91
2021/09/03 11:24:49;;;;;;;1.77;1.60;;;;;;;16.66;55.20;93478.16;1805686;77;21097;-90
2021/09/03 11:27:18;;;;;;;2.98;1.90;;;;;;;16.69;54.37;93469.84;1801692;77;21007;-90
2021/09/03 11:29:58;;;;;;;3.15;1.80;;;;;;;16.73;54.44;93467.80;1762011;78;39216;-88
2021/09/03 11:32:32;;;;;;;2.75;2.02;;;;;;;16.74;53.92;93467.22;1783189;78;21098;-88
2021/09/03 11:35:06;;;;;;;1.70;1.60;;;;;;;16.80;54.81;93468.82;1786504;79;21033;-89
2021/09/03 11:37:44;;;;;;;3.00;1.72;;;;;;;16.89;53.95;93464.86;1778930;78;21610;-90
2021/09/03 11:40:30;;;;;;;1.90;1.65;;;;;;;16.87;54.24;93465.27;1783878;79;20960;-90
2021/09/03 11:43:03;;;;;;;;;;;;;;;16.89;55.11;93456.02;1785844;78;21023;-91
2021/09/03 11:45:39;;;;;;;3.95;2.17;;;;;;;16.96;55.55;93467.38;1818833;77;20382;-89
2021/09/03 11:48:10;;;;;;;2.00;1.90;;;;;;;17.04;54.62;93449.52;1772399;78;21012;-90
2021/09/03 11:50:43;;;;;;;2.47;2.10;;;;;;;17.15;55.47;93450.57;1810408;77;20923;-89
2021/09/03 11:53:19;;;;;;;3.45;2.17;;;;;;;17.20;54.26;93446.70;1802908;78;20935;-92